Time;durP1;ratioP1;P1;durP2;ratioP2;P2;SDS_P1;SDS_P2;PMS_P1;PMS_P2;Temp;Humidity;BMP_temperature;BMP_pressure;BME280_temperature;BME280_humidity;BME280_pressure;Samples;Min_cycle;Max_cycle;Signal;HPM_P1;HPM_P2
2024/04/07 00:01:12;;;;;;;1999.90;999.90;;;;;;;;;;5033943;28;20525;-81
2024/04/07 00:03:39;;;;;;;1999.90;999.90;;;;;;;;;;5034279;28;20063;-82
2024/04/07 00:06:04;;;;;;;1999.90;999.90;;;;;;;;;;5032824;28;20058;-82
2024/04/07 00:08:31;;;;;;;1999.90;999.90;;;;;;;;;;5028402;28;20523;-83
2024/04/07 00:10:57;;;;;;;1999.90;999.90;;;;;;;;;;5025347;28;20152;-79
2024/04/07 00:13:23;;;;;;;1999.90;999.90;;;;;;;;;;5030892;28;20151;-80
2024/04/07 00:15:50;;;;;;;1999.90;999.90;;;;;;;;;;5032367;28;20049;-79
2024/04/07 00:18:17;;;;;;;1999.90;999.90;;;;;;;;;;5036688;28;20076;-79
2024/04/07 00:20:43;;;;;;;1999.90;999.90;;;;;;;;;;5032347;28;20060;-79
2024/04/07 00:23:09;;;;;;;1999.90;999.90;;;;;;;;;;5033308;28;20041;-79
2024/04/07 00:25:35;;;;;;;1999.90;999.90;;;;;;;;;;5031826;28;20055;-79
2024/04/07 00:28:02;;;;;;;1999.90;999.90;;;;;;;;;;5032950;28;20045;-79
2024/04/07 00:30:27;;;;;;;1999.90;999.90;;;;;;;;;;5027137;28;20053;-80
2024/04/07 00:32:55;;;;;;;1999.90;999.90;;;;;;;;;;5025547;28;20123;-79
2024/04/07 00:35:21;;;;;;;1999.90;999.90;;;;;;;;;;5024793;28;20057;-79
2024/04/07 00:37:47;;;;;;;1999.90;999.90;;;;;;;;;;5031125;28;20419;-79
2024/04/07 00:40:13;;;;;;;1999.90;999.90;;;;;;;;;;5035540;28;20049;-79
2024/04/07 00:42:39;;;;;;;1999.90;999.90;;;;;;;;;;5032478;28;20060;-79
2024/04/07 00:45:05;;;;;;;1999.90;999.90;;;;;;;;;;5033013;28;20423;-80
2024/04/07 00:47:32;;;;;;;1999.90;999.90;;;;;;;;;;5031827;28;20053;-79
2024/04/07 00:49:59;;;;;;;1999.90;999.90;;;;;;;;;;5032781;28;20507;-79
2024/04/07 00:52:26;;;;;;;1999.90;999.90;;;;;;;;;;5028187;28;20061;-79
2024/04/07 00:54:51;;;;;;;1999.90;999.90;;;;;;;;;;5027623;28;20062;-79
2024/04/07 00:57:18;;;;;;;1999.90;999.90;;;;;;;;;;5028823;28;20171;-80
2024/04/07 00:59:44;;;;;;;1999.90;999.90;;;;;;;;;;5027202;28;20049;-79
2024/04/07 01:02:12;;;;;;;1999.90;999.90;;;;;;;;;;5030751;28;20144;-79
2024/04/07 01:04:37;;;;;;;1999.90;999.90;;;;;;;;;;5037632;28;20057;-80
2024/04/07 01:07:05;;;;;;;1999.90;999.90;;;;;;;;;;5034442;28;20393;-79
2024/04/07 01:09:32;;;;;;;1999.90;999.90;;;;;;;;;;5038865;28;20139;-79
2024/04/07 01:11:59;;;;;;;1999.90;999.90;;;;;;;;;;5036896;28;20053;-82
2024/04/07 01:14:25;;;;;;;1999.90;999.90;;;;;;;;;;5038130;28;20045;-82
2024/04/07 01:16:51;;;;;;;1999.90;999.90;;;;;;;;;;5028135;28;20052;-82
2024/04/07 01:19:17;;;;;;;1999.90;999.90;;;;;;;;;;5032075;28;20060;-82
2024/04/07 01:21:43;;;;;;;1999.90;999.90;;;;;;;;;;5028279;28;20053;-82
2024/04/07 01:24:10;;;;;;;1999.90;999.90;;;;;;;;;;5029874;28;20056;-83
2024/04/07 01:26:37;;;;;;;1999.90;999.90;;;;;;;;;;5038286;28;20095;-81
2024/04/07 01:29:02;;;;;;;1999.90;999.90;;;;;;;;;;5040088;28;20240;-82
2024/04/07 01:31:29;;;;;;;1999.90;999.90;;;;;;;;;;5038180;28;20172;-82
2024/04/07 01:33:54;;;;;;;1999.90;999.90;;;;;;;;;;5036626;28;20060;-82
2024/04/07 01:36:21;;;;;;;1999.90;999.90;;;;;;;;;;5031590;28;20093;-81
2024/04/07 01:38:46;;;;;;;1999.90;999.90;;;;;;;;;;5031394;28;20128;-81
2024/04/07 01:41:14;;;;;;;1999.90;999.90;;;;;;;;;;5032675;28;20480;-81
2024/04/07 01:43:40;;;;;;;1999.90;999.90;;;;;;;;;;5032714;28;20054;-81
2024/04/07 01:46:07;;;;;;;1999.90;999.90;;;;;;;;;;5034249;28;20064;-81
2024/04/07 01:48:32;;;;;;;1999.90;999.90;;;;;;;;;;5032413;28;20049;-82
2024/04/07 01:50:59;;;;;;;1999.90;999.90;;;;;;;;;;5038235;28;20490;-82
2024/04/07 01:53:24;;;;;;;1999.90;999.90;;;;;;;;;;5031884;28;20471;-83
2024/04/07 01:55:52;;;;;;;1999.90;999.90;;;;;;;;;;5035661;28;20061;-82
2024/04/07 01:58:20;;;;;;;1999.90;999.90;;;;;;;;;;5033134;28;20060;-83
2024/04/07 02:00:46;;;;;;;1999.90;999.90;;;;;;;;;;5029035;28;20091;-82
2024/04/07 02:03:12;;;;;;;1999.90;999.90;;;;;;;;;;5035899;28;20049;-82
2024/04/07 02:05:39;;;;;;;1999.90;999.90;;;;;;;;;;5033529;28;20072;-82
2024/04/07 02:08:05;;;;;;;1999.90;999.90;;;;;;;;;;5035639;28;20059;-84
2024/04/07 02:10:32;;;;;;;1999.90;999.90;;;;;;;;;;5036118;28;20045;-82
2024/04/07 02:12:57;;;;;;;1999.90;999.90;;;;;;;;;;5048936;28;20131;-82
2024/04/07 02:15:25;;;;;;;1999.90;999.90;;;;;;;;;;5038334;28;20060;-82
2024/04/07 02:17:51;;;;;;;1999.90;999.90;;;;;;;;;;5037937;28;20057;-82
2024/04/07 02:20:18;;;;;;;1999.90;999.90;;;;;;;;;;5032540;28;20053;-82
2024/04/07 02:22:44;;;;;;;1999.90;999.90;;;;;;;;;;5029321;28;20053;-80
2024/04/07 02:25:11;;;;;;;1999.90;999.90;;;;;;;;;;5031538;28;20047;-80
2024/04/07 02:27:36;;;;;;;1999.90;999.90;;;;;;;;;;5034302;28;20045;-80
2024/04/07 02:30:04;;;;;;;1999.90;999.90;;;;;;;;;;5037428;28;20487;-80
2024/04/07 02:32:32;;;;;;;1999.90;999.90;;;;;;;;;;5033603;28;20079;-79
2024/04/07 02:34:58;;;;;;;1999.90;999.90;;;;;;;;;;5031325;28;20103;-80
2024/04/07 02:37:24;;;;;;;1999.90;999.90;;;;;;;;;;5040217;28;20053;-80
2024/04/07 02:39:50;;;;;;;1999.90;999.90;;;;;;;;;;5032698;28;20045;-80
2024/04/07 02:42:16;;;;;;;1999.90;999.90;;;;;;;;;;5030776;28;20045;-80
2024/04/07 02:50:12;;;;;;;1999.90;999.90;;;;;;;;;;5030518;28;20072;-79
2024/04/07 02:52:39;;;;;;;1999.90;999.90;;;;;;;;;;5026838;28;20132;-80
2024/04/07 02:55:05;;;;;;;1999.90;999.90;;;;;;;;;;5033650;28;20041;-79
2024/04/07 02:57:32;;;;;;;1999.90;999.90;;;;;;;;;;5037998;28;20134;-80
2024/04/07 02:59:58;;;;;;;1999.90;999.90;;;;;;;;;;5034289;28;20467;-80
2024/04/07 03:02:24;;;;;;;1999.90;999.90;;;;;;;;;;5028070;28;20052;-79
2024/04/07 03:04:51;;;;;;;1999.90;999.90;;;;;;;;;;5024415;28;20486;-79
2024/04/07 03:07:17;;;;;;;1999.90;999.90;;;;;;;;;;5026586;28;20053;-79
2024/04/07 03:09:44;;;;;;;1999.90;999.90;;;;;;;;;;5035085;28;20141;-79
2024/04/07 03:12:10;;;;;;;1999.90;999.90;;;;;;;;;;5029396;28;20059;-80
2024/04/07 03:14:36;;;;;;;1999.90;999.90;;;;;;;;;;5025889;28;20061;-80
2024/04/07 03:17:03;;;;;;;1999.90;999.90;;;;;;;;;;5033583;28;20076;-80
2024/04/07 03:19:29;;;;;;;1999.90;999.90;;;;;;;;;;5037427;28;20060;-80
2024/04/07 03:21:55;;;;;;;1999.90;999.90;;;;;;;;;;5031342;28;20053;-80
2024/04/07 03:24:22;;;;;;;1999.90;999.90;;;;;;;;;;5029492;28;20095;-80
2024/04/07 03:26:49;;;;;;;1999.90;999.90;;;;;;;;;;5029389;28;20049;-81
2024/04/07 03:29:14;;;;;;;1999.90;999.90;;;;;;;;;;5030810;28;20057;-80
2024/04/07 03:31:41;;;;;;;1999.90;999.90;;;;;;;;;;5036906;28;20053;-79
2024/04/07 03:34:06;;;;;;;1999.90;999.90;;;;;;;;;;5037829;28;20049;-79
2024/04/07 03:36:33;;;;;;;1999.90;999.90;;;;;;;;;;5034569;28;20054;-79
2024/04/07 03:39:00;;;;;;;1999.90;999.90;;;;;;;;;;5029283;28;20053;-80
2024/04/07 03:41:27;;;;;;;1999.90;999.90;;;;;;;;;;5039328;28;20163;-82
2024/04/07 03:43:54;;;;;;;1999.90;999.90;;;;;;;;;;5037863;28;20589;-82
2024/04/07 03:46:21;;;;;;;1999.90;999.90;;;;;;;;;;5030940;28;20060;-81
2024/04/07 03:48:47;;;;;;;1999.90;999.90;;;;;;;;;;5028571;28;20129;-82
2024/04/07 03:51:13;;;;;;;1999.90;999.90;;;;;;;;;;5026554;28;20128;-82
2024/04/07 03:53:39;;;;;;;1999.90;999.90;;;;;;;;;;5031350;28;20396;-82
2024/04/07 03:56:06;;;;;;;1999.90;999.90;;;;;;;;;;5033922;28;20049;-82
2024/04/07 03:58:32;;;;;;;1999.90;999.90;;;;;;;;;;5033087;28;20060;-81
2024/04/07 04:01:01;;;;;;;1999.90;999.90;;;;;;;;;;5033578;28;20107;-82
2024/04/07 04:03:26;;;;;;;1999.90;999.90;;;;;;;;;;5034770;28;20574;-82
2024/04/07 04:05:54;;;;;;;1999.90;999.90;;;;;;;;;;5032546;28;20049;-82
2024/04/07 04:08:20;;;;;;;1999.90;999.90;;;;;;;;;;5031553;28;20053;-81
2024/04/07 04:10:46;;;;;;;1999.90;999.90;;;;;;;;;;5030243;28;20478;-82
2024/04/07 04:13:12;;;;;;;1999.90;999.90;;;;;;;;;;5028815;28;20123;-82
2024/04/07 04:15:40;;;;;;;1999.90;999.90;;;;;;;;;;5021886;28;20549;-82
2024/04/07 04:18:06;;;;;;;1999.90;999.90;;;;;;;;;;5035135;28;20049;-82
2024/04/07 04:20:32;;;;;;;1999.90;999.90;;;;;;;;;;5032125;28;20052;-82
2024/04/07 04:22:58;;;;;;;1999.90;999.90;;;;;;;;;;5031296;28;20053;-82
2024/04/07 04:25:25;;;;;;;1999.90;999.90;;;;;;;;;;5034798;28;20051;-82
2024/04/07 04:27:51;;;;;;;1999.90;999.90;;;;;;;;;;5035950;28;21015;-82
2024/04/07 04:30:17;;;;;;;1999.90;999.90;;;;;;;;;;5030983;28;20103;-81
2024/04/07 04:32:46;;;;;;;1999.90;999.90;;;;;;;;;;5031105;28;20056;-81
2024/04/07 04:35:13;;;;;;;1999.90;999.90;;;;;;;;;;5031318;28;20136;-82
2024/04/07 04:37:39;;;;;;;1999.90;999.90;;;;;;;;;;5029511;28;20104;-82
2024/04/07 04:40:08;;;;;;;1999.90;999.90;;;;;;;;;;5030845;28;20061;-82
2024/04/07 04:42:33;;;;;;;1999.90;999.90;;;;;;;;;;5029717;28;20050;-82
2024/04/07 04:45:06;;;;;;;1999.90;999.90;;;;;;;;;;5036903;28;20052;-82
2024/04/07 04:47:31;;;;;;;1999.90;999.90;;;;;;;;;;5034465;28;20072;-82
2024/04/07 04:49:59;;;;;;;1999.90;999.90;;;;;;;;;;5035549;28;20757;-82
2024/04/07 04:52:25;;;;;;;1999.90;999.90;;;;;;;;;;5033912;28;20153;-80
2024/04/07 04:54:51;;;;;;;1999.90;999.90;;;;;;;;;;5031005;28;20136;-79
2024/04/07 04:57:17;;;;;;;1999.90;999.90;;;;;;;;;;5028123;28;20063;-79
2024/04/07 04:59:44;;;;;;;1999.90;999.90;;;;;;;;;;5025944;28;20128;-79
2024/04/07 05:02:10;;;;;;;1999.90;999.90;;;;;;;;;;5029895;28;20064;-80
2024/04/07 05:04:37;;;;;;;1999.90;999.90;;;;;;;;;;5022207;28;20140;-79
2024/04/07 05:07:04;;;;;;;1999.90;999.90;;;;;;;;;;5032688;28;20056;-80
2024/04/07 05:09:31;;;;;;;1999.90;999.90;;;;;;;;;;5035654;28;20510;-80
2024/04/07 05:11:56;;;;;;;1999.90;999.90;;;;;;;;;;5034792;28;20426;-80
2024/04/07 05:14:23;;;;;;;1999.90;999.90;;;;;;;;;;5032385;28;20050;-80
2024/04/07 05:16:49;;;;;;;1999.90;999.90;;;;;;;;;;5023874;28;20515;-80
2024/04/07 05:19:15;;;;;;;1999.90;999.90;;;;;;;;;;5028178;28;20049;-80
2024/04/07 05:21:42;;;;;;;1999.90;999.90;;;;;;;;;;5033391;28;20041;-80
2024/04/07 05:24:10;;;;;;;1999.90;999.90;;;;;;;;;;5032417;28;20145;-80
2024/04/07 05:26:35;;;;;;;1999.90;999.90;;;;;;;;;;5034234;28;20049;-80
2024/04/07 05:29:03;;;;;;;1999.90;999.90;;;;;;;;;;5028967;28;20095;-80
2024/04/07 05:31:29;;;;;;;1999.90;999.90;;;;;;;;;;5030582;28;20066;-80
2024/04/07 05:33:55;;;;;;;1999.90;999.90;;;;;;;;;;5031859;28;20103;-80
2024/04/07 05:36:21;;;;;;;1999.90;999.90;;;;;;;;;;5034258;28;20046;-80
2024/04/07 05:38:47;;;;;;;1999.90;999.90;;;;;;;;;;5033141;28;20063;-80
2024/04/07 05:41:14;;;;;;;1999.90;999.90;;;;;;;;;;5032398;28;20064;-80
2024/04/07 05:43:41;;;;;;;1999.90;999.90;;;;;;;;;;5035356;28;20072;-80
2024/04/07 05:46:08;;;;;;;1999.90;999.90;;;;;;;;;;5036653;28;20052;-80
2024/04/07 05:48:35;;;;;;;1999.90;999.90;;;;;;;;;;5033121;28;20046;-80
2024/04/07 05:51:03;;;;;;;1999.90;999.90;;;;;;;;;;5032287;28;20119;-80
2024/04/07 05:53:29;;;;;;;1999.90;999.90;;;;;;;;;;5027722;28;20061;-83
2024/04/07 05:55:55;;;;;;;1999.90;999.90;;;;;;;;;;5030044;28;20526;-83
2024/04/07 05:58:23;;;;;;;1999.90;999.90;;;;;;;;;;5035494;28;20057;-83
2024/04/07 06:00:50;;;;;;;1999.90;999.90;;;;;;;;;;5032066;28;20426;-84
2024/04/07 06:03:16;;;;;;;1999.90;999.90;;;;;;;;;;5035358;28;20089;-85
2024/04/07 06:05:42;;;;;;;1999.90;999.90;;;;;;;;;;5026088;28;20108;-83
2024/04/07 06:08:09;;;;;;;1999.90;999.90;;;;;;;;;;5031307;28;20084;-84
2024/04/07 06:10:35;;;;;;;1999.90;999.90;;;;;;;;;;5039241;28;20053;-84
2024/04/07 06:13:02;;;;;;;1999.90;999.90;;;;;;;;;;5036036;28;20155;-84
2024/04/07 06:15:29;;;;;;;1999.90;999.90;;;;;;;;;;5032898;28;20053;-85
2024/04/07 06:17:55;;;;;;;1999.90;999.90;;;;;;;;;;5029555;28;20057;-83
2024/04/07 06:20:21;;;;;;;1999.90;999.90;;;;;;;;;;5033151;28;20509;-83
2024/04/07 06:22:47;;;;;;;1999.90;999.90;;;;;;;;;;5033477;28;20054;-84
2024/04/07 06:25:13;;;;;;;1999.90;999.90;;;;;;;;;;5037553;28;20494;-84
2024/04/07 06:27:40;;;;;;;1999.90;999.90;;;;;;;;;;5036807;28;20054;-83
2024/04/07 06:30:07;;;;;;;1999.90;999.90;;;;;;;;;;5028770;28;20495;-84
2024/04/07 06:32:35;;;;;;;1999.90;999.90;;;;;;;;;;5035758;28;20049;-84
2024/04/07 06:35:02;;;;;;;1999.90;999.90;;;;;;;;;;5035119;28;20054;-84
2024/04/07 06:37:28;;;;;;;1999.90;999.90;;;;;;;;;;5040004;28;20049;-84
2024/04/07 06:39:55;;;;;;;1999.90;999.90;;;;;;;;;;5029651;28;20406;-84
2024/04/07 06:42:26;;;;;;;1999.90;999.90;;;;;;;;;;5037159;28;20404;-84
2024/04/07 06:44:53;;;;;;;1999.90;999.90;;;;;;;;;;5032695;28;20550;-85
2024/04/07 06:47:20;;;;;;;1999.90;999.90;;;;;;;;;;5039867;28;20060;-84
2024/04/07 06:49:49;;;;;;;1999.90;999.90;;;;;;;;;;5038124;28;20053;-84
2024/04/07 06:52:16;;;;;;;1999.90;999.90;;;;;;;;;;5030820;28;20141;-84
2024/04/07 06:54:41;;;;;;;1999.90;999.90;;;;;;;;;;5032960;28;20164;-85
2024/04/07 06:57:08;;;;;;;1999.90;999.90;;;;;;;;;;5037241;28;20136;-84
2024/04/07 06:59:33;;;;;;;1999.90;999.90;;;;;;;;;;5032661;28;20812;-84
2024/04/07 07:02:00;;;;;;;1999.90;999.90;;;;;;;;;;5033980;28;20053;-84
2024/04/07 07:04:25;;;;;;;1999.90;999.90;;;;;;;;;;5029406;28;20055;-84
2024/04/07 07:06:53;;;;;;;1999.90;999.90;;;;;;;;;;5035579;28;20052;-85
2024/04/07 07:09:19;;;;;;;1999.90;999.90;;;;;;;;;;5033087;28;20065;-85
2024/04/07 07:11:46;;;;;;;1999.90;999.90;;;;;;;;;;5034236;28;20052;-85
2024/04/07 07:14:12;;;;;;;1999.90;999.90;;;;;;;;;;5030709;28;20495;-85
2024/04/07 07:16:38;;;;;;;1999.90;999.90;;;;;;;;;;5033776;28;20061;-86
2024/04/07 07:19:04;;;;;;;1999.90;999.90;;;;;;;;;;5036537;28;20049;-84
2024/04/07 07:21:30;;;;;;;1999.90;999.90;;;;;;;;;;5035283;28;20060;-84
2024/04/07 07:23:57;;;;;;;1999.90;999.90;;;;;;;;;;5032171;28;20053;-85
2024/04/07 07:26:24;;;;;;;1999.90;999.90;;;;;;;;;;5031145;28;20045;-84
2024/04/07 07:28:49;;;;;;;1999.90;999.90;;;;;;;;;;5029962;28;20418;-83
2024/04/07 07:31:17;;;;;;;1999.90;999.90;;;;;;;;;;5033303;28;20064;-83
2024/04/07 07:33:42;;;;;;;1999.90;999.90;;;;;;;;;;5035960;28;20049;-83
2024/04/07 07:36:09;;;;;;;1999.90;999.90;;;;;;;;;;5037682;28;20186;-84
2024/04/07 07:38:35;;;;;;;1999.90;999.90;;;;;;;;;;5037161;28;20056;-84
2024/04/07 07:41:03;;;;;;;1999.90;999.90;;;;;;;;;;5026979;28;20097;-84
2024/04/07 07:43:28;;;;;;;1999.90;999.90;;;;;;;;;;5030377;28;20048;-84
2024/04/07 07:45:56;;;;;;;1999.90;999.90;;;;;;;;;;5039722;28;20048;-84
2024/04/07 07:48:21;;;;;;;1999.90;999.90;;;;;;;;;;5037255;28;20054;-83
2024/04/07 07:50:48;;;;;;;1999.90;999.90;;;;;;;;;;5033079;28;20060;-83
2024/04/07 07:53:14;;;;;;;1999.90;999.90;;;;;;;;;;5032337;28;20042;-83
2024/04/07 07:55:40;;;;;;;1999.90;999.90;;;;;;;;;;5030722;28;20436;-82
2024/04/07 07:58:07;;;;;;;1999.90;999.90;;;;;;;;;;5033987;28;20052;-82
2024/04/07 08:00:34;;;;;;;1999.90;999.90;;;;;;;;;;5036833;28;20064;-82
2024/04/07 08:02:59;;;;;;;1999.90;999.90;;;;;;;;;;5035633;28;20057;-82
2024/04/07 08:05:26;;;;;;;1999.90;999.90;;;;;;;;;;5026912;28;20513;-83
2024/04/07 08:07:52;;;;;;;1999.90;999.90;;;;;;;;;;5032071;28;20037;-82
2024/04/07 08:10:18;;;;;;;1999.90;999.90;;;;;;;;;;5038334;28;20466;-82
2024/04/07 08:12:44;;;;;;;1999.90;999.90;;;;;;;;;;5028060;28;20059;-82
2024/04/07 08:15:14;;;;;;;1999.90;999.90;;;;;;;;;;5029754;28;20506;-82
2024/04/07 08:17:40;;;;;;;1999.90;999.90;;;;;;;;;;4991829;28;20507;-82
2024/04/07 08:20:08;;;;;;;1999.90;999.90;;;;;;;;;;4989677;28;20516;-82
2024/04/07 08:22:34;;;;;;;1999.90;999.90;;;;;;;;;;4994495;28;20088;-83
2024/04/07 08:25:05;;;;;;;1999.90;999.90;;;;;;;;;;4993700;28;21031;-83
2024/04/07 08:27:32;;;;;;;1999.90;999.90;;;;;;;;;;4991412;28;20051;-83
2024/04/07 08:29:58;;;;;;;1999.90;999.90;;;;;;;;;;4999859;28;20049;-83
2024/04/07 08:32:25;;;;;;;1999.90;999.90;;;;;;;;;;4995789;28;20064;-84
2024/04/07 08:34:51;;;;;;;1999.90;999.90;;;;;;;;;;4995308;28;20046;-83
2024/04/07 08:37:18;;;;;;;1999.90;999.90;;;;;;;;;;4993039;28;20057;-83
2024/04/07 08:39:45;;;;;;;1999.90;999.90;;;;;;;;;;4993621;28;20495;-82
2024/04/07 08:42:15;;;;;;;1999.90;999.90;;;;;;;;;;4996196;28;20153;-83
2024/04/07 08:44:43;;;;;;;1999.90;999.90;;;;;;;;;;4986392;28;20082;-82
2024/04/07 08:47:13;;;;;;;1999.90;999.90;;;;;;;;;;4996678;28;20051;-84
2024/04/07 08:49:41;;;;;;;1999.90;999.90;;;;;;;;;;4999103;28;20694;-83
2024/04/07 08:52:09;;;;;;;1999.90;999.90;;;;;;;;;;4997686;28;20068;-82
2024/04/07 08:54:36;;;;;;;1999.90;999.90;;;;;;;;;;4995611;28;20060;-82
2024/04/07 08:57:08;;;;;;;1999.90;999.90;;;;;;;;;;4991613;28;20527;-83
2024/04/07 08:59:33;;;;;;;1999.90;999.90;;;;;;;;;;4999390;28;20050;-83
2024/04/07 09:02:02;;;;;;;1999.90;999.90;;;;;;;;;;4991629;28;20109;-82
2024/04/07 09:04:32;;;;;;;1999.90;999.90;;;;;;;;;;4990549;28;20050;-82
2024/04/07 09:07:00;;;;;;;1999.90;999.90;;;;;;;;;;4989106;28;20058;-83
2024/04/07 09:09:25;;;;;;;1999.90;999.90;;;;;;;;;;4990204;28;20465;-83
2024/04/07 09:11:52;;;;;;;1999.90;999.90;;;;;;;;;;4990229;28;20145;-83
2024/04/07 09:14:18;;;;;;;1999.90;999.90;;;;;;;;;;4991907;28;20054;-82
2024/04/07 09:16:45;;;;;;;1999.90;999.90;;;;;;;;;;5021290;28;20052;-82
2024/04/07 09:19:10;;;;;;;1999.90;999.90;;;;;;;;;;5038895;28;21000;-81
2024/04/07 09:21:37;;;;;;;1999.90;999.90;;;;;;;;;;5032142;28;20050;-82
2024/04/07 09:24:09;;;;;;;1999.90;999.90;;;;;;;;;;5027699;28;20050;-82
2024/04/07 09:26:35;;;;;;;1999.90;999.90;;;;;;;;;;5029267;28;20049;-81
2024/04/07 09:29:01;;;;;;;1999.90;999.90;;;;;;;;;;5035647;28;20046;-82
2024/04/07 09:31:27;;;;;;;1999.90;999.90;;;;;;;;;;5025858;28;20064;-81
2024/04/07 09:33:53;;;;;;;1999.90;999.90;;;;;;;;;;5019261;28;20053;-80
2024/04/07 09:36:22;;;;;;;1999.90;999.90;;;;;;;;;;5028505;28;20050;-80
2024/04/07 09:38:49;;;;;;;1999.90;999.90;;;;;;;;;;5036824;28;20052;-80
2024/04/07 09:41:17;;;;;;;1999.90;999.90;;;;;;;;;;5039932;28;20049;-81
2024/04/07 09:43:47;;;;;;;1999.90;999.90;;;;;;;;;;5033094;28;20064;-81
2024/04/07 09:46:15;;;;;;;1999.90;999.90;;;;;;;;;;5032655;28;20060;-82
2024/04/07 09:48:42;;;;;;;1999.90;999.90;;;;;;;;;;5041035;28;20049;-81
2024/04/07 09:51:14;;;;;;;1999.90;999.90;;;;;;;;;;5031256;28;20053;-81
2024/04/07 09:53:56;;;;;;;1999.90;999.90;;;;;;;;;;5032090;28;20049;-81
2024/04/07 09:56:29;;;;;;;1999.90;999.90;;;;;;;;;;5028392;28;20547;-81
2024/04/07 09:58:56;;;;;;;1999.90;999.90;;;;;;;;;;5034277;28;20053;-80
2024/04/07 10:01:22;;;;;;;1999.90;999.90;;;;;;;;;;5036522;28;20057;-81
2024/04/07 10:03:48;;;;;;;1999.90;999.90;;;;;;;;;;5039177;28;20060;-80
2024/04/07 10:06:16;;;;;;;1999.90;999.90;;;;;;;;;;5033535;28;20049;-80
2024/04/07 10:08:42;;;;;;;1999.90;999.90;;;;;;;;;;5038532;28;20049;-80
2024/04/07 10:11:15;;;;;;;1999.90;999.90;;;;;;;;;;5036229;28;20426;-80
2024/04/07 10:13:42;;;;;;;1999.90;999.90;;;;;;;;;;5032406;28;20049;-80
2024/04/07 10:16:09;;;;;;;1999.90;999.90;;;;;;;;;;5041867;28;20095;-80
2024/04/07 10:18:37;;;;;;;1999.90;999.90;;;;;;;;;;5032480;28;20045;-81
2024/04/07 10:21:04;;;;;;;1999.90;999.90;;;;;;;;;;5033823;28;20463;-80
2024/04/07 10:23:29;;;;;;;1999.90;999.90;;;;;;;;;;5033221;28;20525;-80
2024/04/07 10:25:59;;;;;;;1999.90;999.90;;;;;;;;;;5029276;28;20045;-80
2024/04/07 10:28:25;;;;;;;1999.90;999.90;;;;;;;;;;5039050;28;20049;-81
2024/04/07 10:30:58;;;;;;;1999.90;999.90;;;;;;;;;;5034503;28;20482;-80
2024/04/07 10:33:28;;;;;;;1999.90;999.90;;;;;;;;;;5037020;28;20057;-80
2024/04/07 10:35:57;;;;;;;1999.90;999.90;;;;;;;;;;5028009;28;20128;-80
2024/04/07 10:38:23;;;;;;;1999.90;999.90;;;;;;;;;;5034577;28;20836;-80
2024/04/07 10:40:52;;;;;;;1999.90;999.90;;;;;;;;;;5036050;28;20045;-80
2024/04/07 10:43:18;;;;;;;1999.90;999.90;;;;;;;;;;5034522;28;20057;-81
2024/04/07 10:45:45;;;;;;;1999.90;999.90;;;;;;;;;;5027340;28;20049;-80
2024/04/07 10:48:12;;;;;;;1999.90;999.90;;;;;;;;;;5037006;28;20102;-80
2024/04/07 10:50:38;;;;;;;1999.90;999.90;;;;;;;;;;5038886;28;20233;-80
2024/04/07 10:53:06;;;;;;;1999.90;999.90;;;;;;;;;;5031197;28;20046;-84
2024/04/07 10:55:33;;;;;;;1999.90;999.90;;;;;;;;;;5034534;28;20103;-84
2024/04/07 10:57:58;;;;;;;1999.90;999.90;;;;;;;;;;5030445;28;20046;-83
2024/04/07 11:00:25;;;;;;;1999.90;999.90;;;;;;;;;;5031607;28;20612;-85
2024/04/07 11:02:52;;;;;;;1999.90;999.90;;;;;;;;;;5030834;28;20057;-84
2024/04/07 11:05:20;;;;;;;1999.90;999.90;;;;;;;;;;5037547;28;20057;-85
2024/04/07 11:07:46;;;;;;;1999.90;999.90;;;;;;;;;;5030914;28;20053;-85
2024/04/07 11:10:13;;;;;;;1999.90;999.90;;;;;;;;;;5028437;28;20748;-84
2024/04/07 11:12:40;;;;;;;1999.90;999.90;;;;;;;;;;5040529;28;20053;-85
2024/04/07 11:15:15;;;;;;;1999.90;999.90;;;;;;;;;;5038251;28;20427;-85
2024/04/07 11:17:41;;;;;;;1999.90;999.90;;;;;;;;;;5028677;28;20050;-84
2024/04/07 11:20:08;;;;;;;1999.90;999.90;;;;;;;;;;5028007;28;20045;-84
2024/04/07 11:22:35;;;;;;;1999.90;999.90;;;;;;;;;;5031442;28;20495;-83
2024/04/07 11:25:02;;;;;;;1999.90;999.90;;;;;;;;;;5032304;28;20096;-85
2024/04/07 11:27:28;;;;;;;1999.90;999.90;;;;;;;;;;5032338;28;20081;-83
2024/04/07 11:29:55;;;;;;;1999.90;999.90;;;;;;;;;;5035964;28;20128;-84
2024/04/07 11:32:20;;;;;;;1999.90;999.90;;;;;;;;;;5033336;28;20124;-84
2024/04/07 11:34:47;;;;;;;1999.90;999.90;;;;;;;;;;5033319;28;20829;-84
2024/04/07 11:37:12;;;;;;;1999.90;999.90;;;;;;;;;;5027274;28;20250;-88
2024/04/07 11:39:40;;;;;;;1999.90;999.90;;;;;;;;;;5030449;28;20519;-86
2024/04/07 11:42:06;;;;;;;1999.90;999.90;;;;;;;;;;5040345;28;20059;-86
2024/04/07 11:44:33;;;;;;;1999.90;999.90;;;;;;;;;;5033929;28;20828;-85
2024/04/07 11:46:58;;;;;;;1999.90;999.90;;;;;;;;;;5028888;28;20081;-85
2024/04/07 11:49:25;;;;;;;1999.90;999.90;;;;;;;;;;5030044;28;20147;-86
2024/04/07 11:51:51;;;;;;;1999.90;999.90;;;;;;;;;;5030772;28;20123;-87
2024/04/07 11:54:17;;;;;;;1999.90;999.90;;;;;;;;;;5034130;28;20057;-80
2024/04/07 11:56:45;;;;;;;1999.90;999.90;;;;;;;;;;5034405;28;20053;-80
2024/04/07 11:59:12;;;;;;;1999.90;999.90;;;;;;;;;;5029859;28;20052;-80
2024/04/07 12:01:38;;;;;;;1999.90;999.90;;;;;;;;;;5033545;28;20049;-80
2024/04/07 12:04:04;;;;;;;1999.90;999.90;;;;;;;;;;5036124;28;20148;-80
2024/04/07 12:06:30;;;;;;;1999.90;999.90;;;;;;;;;;5033121;28;20777;-80
2024/04/07 12:09:00;;;;;;;1999.90;999.90;;;;;;;;;;5041059;28;20059;-79
2024/04/07 12:11:25;;;;;;;1999.90;999.90;;;;;;;;;;5039349;28;20064;-80
2024/04/07 12:13:53;;;;;;;1999.90;999.90;;;;;;;;;;5036051;28;20049;-80
2024/04/07 12:16:19;;;;;;;1999.90;999.90;;;;;;;;;;5030891;28;20057;-80
2024/04/07 12:18:45;;;;;;;1999.90;999.90;;;;;;;;;;5030246;28;20399;-80
2024/04/07 12:21:11;;;;;;;1999.90;999.90;;;;;;;;;;5030899;28;20052;-81
2024/04/07 12:23:43;;;;;;;1999.90;999.90;;;;;;;;;;5027545;28;20127;-80
2024/04/07 12:26:08;;;;;;;1999.90;999.90;;;;;;;;;;5023464;28;20712;-80
2024/04/07 12:28:35;;;;;;;1999.90;999.90;;;;;;;;;;5028197;28;20034;-81
2024/04/07 12:31:02;;;;;;;1999.90;999.90;;;;;;;;;;5025107;28;20054;-81
2024/04/07 12:33:28;;;;;;;1999.90;999.90;;;;;;;;;;5031340;28;20221;-80
2024/04/07 12:35:54;;;;;;;1999.90;999.90;;;;;;;;;;5028224;28;20144;-81
2024/04/07 12:38:21;;;;;;;1999.90;999.90;;;;;;;;;;5028557;28;20128;-78
2024/04/07 12:40:46;;;;;;;1999.90;999.90;;;;;;;;;;5032024;28;20056;-79
2024/04/07 12:43:13;;;;;;;1999.90;999.90;;;;;;;;;;5036622;28;20045;-80
2024/04/07 12:45:39;;;;;;;1999.90;999.90;;;;;;;;;;5033061;28;20513;-80
2024/04/07 12:48:17;;;;;;;1999.90;999.90;;;;;;;;;;5026431;28;20059;-80
2024/04/07 12:50:42;;;;;;;1999.90;999.90;;;;;;;;;;5026164;28;20056;-83
2024/04/07 12:53:09;;;;;;;1999.90;999.90;;;;;;;;;;5030472;28;20053;-82
2024/04/07 12:55:35;;;;;;;1999.90;999.90;;;;;;;;;;5029601;28;20827;-82
2024/04/07 12:58:02;;;;;;;1999.90;999.90;;;;;;;;;;5036227;28;20151;-82
2024/04/07 13:00:28;;;;;;;1999.90;999.90;;;;;;;;;;5037725;28;20056;-82
2024/04/07 13:02:55;;;;;;;1999.90;999.90;;;;;;;;;;5038449;28;20041;-82
2024/04/07 13:05:22;;;;;;;1999.90;999.90;;;;;;;;;;5035552;28;20549;-82
2024/04/07 13:07:48;;;;;;;1999.90;999.90;;;;;;;;;;5030165;28;20149;-83
2024/04/07 13:10:17;;;;;;;1999.90;999.90;;;;;;;;;;5029720;28;20045;-83
2024/04/07 13:12:46;;;;;;;1999.90;999.90;;;;;;;;;;5026321;28;20056;-80
2024/04/07 13:15:13;;;;;;;1999.90;999.90;;;;;;;;;;5024793;28;20063;-83
2024/04/07 13:17:39;;;;;;;1999.90;999.90;;;;;;;;;;5038128;28;20388;-85
2024/04/07 13:20:06;;;;;;;1999.90;999.90;;;;;;;;;;5034159;28;20041;-83
2024/04/07 13:22:34;;;;;;;1999.90;999.90;;;;;;;;;;5037467;28;20064;-84
2024/04/07 13:24:59;;;;;;;1999.90;999.90;;;;;;;;;;5035380;28;20052;-85
2024/04/07 13:27:26;;;;;;;1999.90;999.90;;;;;;;;;;5036561;28;20050;-84
2024/04/07 13:29:51;;;;;;;1999.90;999.90;;;;;;;;;;5033878;28;20057;-84
2024/04/07 13:32:18;;;;;;;1999.90;999.90;;;;;;;;;;5033991;28;20084;-85
2024/04/07 13:34:44;;;;;;;1999.90;999.90;;;;;;;;;;5026802;28;20056;-85
2024/04/07 13:37:10;;;;;;;1999.90;999.90;;;;;;;;;;5032722;28;20038;-85
2024/04/07 13:39:37;;;;;;;1999.90;999.90;;;;;;;;;;5033046;28;20049;-84
2024/04/07 13:42:05;;;;;;;1999.90;999.90;;;;;;;;;;5032150;28;20076;-84
2024/04/07 13:44:31;;;;;;;1999.90;999.90;;;;;;;;;;5038765;28;20049;-84